PWSweather.com
Personal Weather Stations
Station Observations
ARECO747
Argentina , San Antonio ArecoAR Bs.As

Argentina San Antonio ArecoAR Bs.As

Lat: -34.24447275818, Lon: -59.47654187679

Elevation: 102

Station Type: InformaciĆ³n generada con nuevo Microchip Ethernet conectado a estaciĆ³n WH1081

http://www.meteostar.com.ar

High Low Average
Temperature 101.8°F38.8°C 72.5°F22.5°C 84.3°F29.1°C
Dew Point 73.9°F23.3°C 62.6°F17.0°C 66.4°F19.1°C
Winds 15.9 mph 25.6 kmh Calm Calm 4.0 mph ESE6.4 kmh ESE
Wind Gusts 30.4 mph48.9 kmh -- 7.0 mph11.3 kmh
Humidity 81% 31% 58%
Pressure 29.95 in1014.2 mb 29.81 in1009.5 mb -
Precipitation 0.09 in2.3 mm - -
Hour Temp Dew Point Humidity Winds Wind Gusts Pressure Precip Precip Rate Daily Precip Total
12:03 AM 77.2°F25.1°C 70.5°F21.4°C 80% 3.8 mph NE6.1 kmh NE 7.6 mph12.2 kmh 29.94 in1013.9 mb 0.00 in0.0 mm 0.00 in0.0 mm 0.00 in0.0 mm
12:08 AM 77.2°F25.1°C 70.5°F21.4°C 80% 3.8 mph NE6.1 kmh NE 6.0 mph9.7 kmh 29.94 in1013.9 mb 0.00 in0.0 mm 0.00 in0.0 mm 0.00 in0.0 mm
12:13 AM 77.2°F25.1°C 70.5°F21.4°C 80% 3.1 mph E5.0 kmh E 6.9 mph11.1 kmh 29.94 in1013.9 mb 0.00 in0.0 mm 0.00 in0.0 mm 0.00 in0.0 mm
12:18 AM 77.2°F25.1°C 70.5°F21.4°C 80% 3.1 mph E5.0 kmh E 6.0 mph9.7 kmh 29.94 in1013.9 mb 0.00 in0.0 mm 0.00 in0.0 mm 0.00 in0.0 mm
12:23 AM 77.2°F25.1°C 70.2°F21.2°C 79% 4.5 mph NNE7.2 kmh NNE 7.6 mph12.2 kmh 29.94 in1013.9 mb 0.00 in0.0 mm 0.00 in0.0 mm 0.00 in0.0 mm
12:29 AM 77.2°F25.1°C 70.2°F21.2°C 79% 3.8 mph E6.1 kmh E 7.6 mph12.2 kmh 29.94 in1013.9 mb 0.00 in0.0 mm 0.00 in0.0 mm 0.00 in0.0 mm
12:34 AM 77.2°F25.1°C 70.2°F21.2°C 79% 3.1 mph E5.0 kmh E 6.9 mph11.1 kmh 29.93 in1013.5 mb 0.00 in0.0 mm 0.00 in0.0 mm 0.00 in0.0 mm
12:39 AM 77.2°F25.1°C 69.8°F21.0°C 78% 1.6 mph NE2.6 kmh NE 7.6 mph12.2 kmh 29.94 in1013.9 mb 0.00 in0.0 mm 0.00 in0.0 mm 0.00 in0.0 mm
12:44 AM 77.2°F25.1°C 69.8°F21.0°C 78% 3.1 mph E5.0 kmh E 6.0 mph9.7 kmh 29.94 in1013.9 mb 0.00 in0.0 mm 0.00 in0.0 mm 0.00 in0.0 mm
12:49 AM 77.2°F25.1°C 69.4°F20.8°C 77% 3.1 mph E5.0 kmh E 6.0 mph9.7 kmh 29.94 in1013.9 mb 0.00 in0.0 mm 0.00 in0.0 mm 0.00 in0.0 mm
12:54 AM 77.2°F25.1°C 69.4°F20.8°C 77% 4.5 mph E7.2 kmh E 6.0 mph9.7 kmh 29.94 in1013.9 mb 0.00 in0.0 mm 0.00 in0.0 mm 0.00 in0.0 mm
01:00 AM 77.2°F25.1°C 69.1°F20.6°C 76% 4.5 mph E7.2 kmh E 7.6 mph12.2 kmh 29.94 in1013.9 mb 0.00 in0.0 mm 0.00 in0.0 mm 0.00 in0.0 mm
01:05 AM 77.2°F25.1°C 68.7°F20.4°C 75% 4.5 mph E7.2 kmh E 5.4 mph8.7 kmh 29.94 in1013.9 mb 0.00 in0.0 mm 0.00 in0.0 mm 0.00 in0.0 mm
01:10 AM 77.2°F25.1°C 68.7°F20.4°C 75% 6.0 mph ENE9.7 kmh ENE 6.9 mph11.1 kmh 29.94 in1013.9 mb 0.00 in0.0 mm 0.00 in0.0 mm 0.00 in0.0 mm
01:15 AM 77.2°F25.1°C 68.2°F20.1°C 74% 3.8 mph NE6.1 kmh NE 6.0 mph9.7 kmh 29.94 in1013.9 mb 0.00 in0.0 mm 0.00 in0.0 mm 0.00 in0.0 mm
01:20 AM 77.2°F25.1°C 68.2°F20.1°C 74% 3.1 mph NE5.0 kmh NE 6.0 mph9.7 kmh 29.94 in1013.9 mb 0.00 in0.0 mm 0.00 in0.0 mm 0.00 in0.0 mm
01:25 AM 77.2°F25.1°C 68.2°F20.1°C 74% 3.8 mph NE6.1 kmh NE 6.0 mph9.7 kmh 29.94 in1013.9 mb 0.00 in0.0 mm 0.00 in0.0 mm 0.00 in0.0 mm
01:31 AM 77.2°F25.1°C 68.2°F20.1°C 74% 3.1 mph NE5.0 kmh NE 6.0 mph9.7 kmh 29.93 in1013.5 mb 0.00 in0.0 mm 0.00 in0.0 mm 0.00 in0.0 mm
01:36 AM 77.0°F25.0°C 68.0°F20.0°C 74% 3.1 mph 5.0 kmh 6.0 mph9.7 kmh 29.93 in1013.5 mb 0.00 in0.0 mm 0.00 in0.0 mm 0.00 in0.0 mm
01:41 AM 76.8°F24.9°C 67.8°F19.9°C 74% 3.1 mph E5.0 kmh E 6.0 mph9.7 kmh 29.93 in1013.5 mb 0.00 in0.0 mm 0.00 in0.0 mm 0.00 in0.0 mm
01:46 AM 76.6°F24.8°C 67.6°F19.8°C 74% 3.8 mph E6.1 kmh E 5.4 mph8.7 kmh 29.93 in1013.5 mb 0.00 in0.0 mm 0.00 in0.0 mm 0.00 in0.0 mm
01:51 AM 76.5°F24.7°C 68.0°F20.0°C 75% 2.2 mph NE3.5 kmh NE 6.0 mph9.7 kmh 29.93 in1013.5 mb 0.00 in0.0 mm 0.00 in0.0 mm 0.00 in0.0 mm
01:56 AM 76.3°F24.6°C 67.8°F19.9°C 75% 3.8 mph NE6.1 kmh NE 6.0 mph9.7 kmh 29.93 in1013.5 mb 0.00 in0.0 mm 0.00 in0.0 mm 0.00 in0.0 mm
02:02 AM 76.1°F24.5°C 67.6°F19.8°C 75% 3.1 mph NE5.0 kmh NE -- 29.93 in1013.5 mb 0.00 in0.0 mm 0.00 in0.0 mm 0.00 in0.0 mm
02:05 AM 75.9°F24.4°C 68.2°F20.1°C 77% 3.1 mph NE5.0 kmh NE -- 29.93 in1013.5 mb 0.00 in0.0 mm 0.00 in0.0 mm 0.00 in0.0 mm
02:10 AM 75.7°F24.3°C 68.0°F20.0°C 77% 3.8 mph NE6.1 kmh NE 4.5 mph7.2 kmh 29.92 in1013.2 mb 0.00 in0.0 mm 0.00 in0.0 mm 0.00 in0.0 mm
02:15 AM 75.7°F24.3°C 68.0°F20.0°C 77% 3.1 mph E5.0 kmh E 4.5 mph7.2 kmh 29.92 in1013.2 mb 0.00 in0.0 mm 0.00 in0.0 mm 0.00 in0.0 mm
02:20 AM 75.4°F24.1°C 67.6°F19.8°C 77% 2.2 mph NE3.5 kmh NE 5.4 mph8.7 kmh 29.92 in1013.2 mb 0.00 in0.0 mm 0.00 in0.0 mm 0.00 in0.0 mm
02:26 AM 75.4°F24.1°C 68.0°F20.0°C 78% 3.1 mph E5.0 kmh E 5.4 mph8.7 kmh 29.92 in1013.2 mb 0.00 in0.0 mm 0.00 in0.0 mm 0.00 in0.0 mm
02:31 AM 75.0°F23.9°C 67.6°F19.8°C 78% 1.6 mph ENE2.6 kmh ENE 4.5 mph7.2 kmh 29.92 in1013.2 mb 0.00 in0.0 mm 0.00 in0.0 mm 0.00 in0.0 mm
02:36 AM 75.0°F23.9°C 67.6°F19.8°C 78% 0.7 mph NE1.1 kmh NE 4.5 mph7.2 kmh 29.92 in1013.2 mb 0.00 in0.0 mm 0.00 in0.0 mm 0.00 in0.0 mm
02:41 AM 75.0°F23.9°C 67.6°F19.8°C 78% 3.1 mph NE5.0 kmh NE 4.5 mph7.2 kmh 29.92 in1013.2 mb 0.00 in0.0 mm 0.00 in0.0 mm 0.00 in0.0 mm
02:46 AM 75.0°F23.9°C 67.6°F19.8°C 78% 3.8 mph NE6.1 kmh NE 4.5 mph7.2 kmh 29.92 in1013.2 mb 0.00 in0.0 mm 0.00 in0.0 mm 0.00 in0.0 mm
02:51 AM 75.0°F23.9°C 67.6°F19.8°C 78% 3.8 mph E6.1 kmh E 5.4 mph8.7 kmh 29.92 in1013.2 mb 0.00 in0.0 mm 0.00 in0.0 mm 0.00 in0.0 mm
02:57 AM 75.0°F23.9°C 67.6°F19.8°C 78% 3.1 mph NE5.0 kmh NE 5.4 mph8.7 kmh 29.92 in1013.2 mb 0.00 in0.0 mm 0.00 in0.0 mm 0.00 in0.0 mm
03:02 AM 75.0°F23.9°C 67.6°F19.8°C 78% 3.1 mph NE5.0 kmh NE 6.0 mph9.7 kmh 29.91 in1012.9 mb 0.00 in0.0 mm 0.00 in0.0 mm 0.00 in0.0 mm
03:07 AM 75.0°F23.9°C 67.6°F19.8°C 78% 3.1 mph ENE5.0 kmh ENE 4.5 mph7.2 kmh 29.92 in1013.2 mb 0.00 in0.0 mm 0.00 in0.0 mm 0.00 in0.0 mm
03:12 AM 74.8°F23.8°C 67.5°F19.7°C 78% 3.1 mph ENE5.0 kmh ENE 5.4 mph8.7 kmh 29.92 in1013.2 mb 0.00 in0.0 mm 0.00 in0.0 mm 0.00 in0.0 mm
03:17 AM 74.8°F23.8°C 67.1°F19.5°C 77% 2.2 mph NE3.5 kmh NE 3.8 mph6.1 kmh 29.92 in1013.2 mb 0.00 in0.0 mm 0.00 in0.0 mm 0.00 in0.0 mm
03:22 AM 74.8°F23.8°C 67.1°F19.5°C 77% 1.6 mph NE2.6 kmh NE 3.1 mph5.0 kmh 29.92 in1013.2 mb 0.00 in0.0 mm 0.00 in0.0 mm 0.00 in0.0 mm
03:28 AM 74.7°F23.7°C 67.3°F19.6°C 78% 0.7 mph NE1.1 kmh NE 3.1 mph5.0 kmh 29.92 in1013.2 mb 0.00 in0.0 mm 0.00 in0.0 mm 0.00 in0.0 mm
03:33 AM 74.7°F23.7°C 66.9°F19.4°C 77% 0.7 mph E1.1 kmh E 2.2 mph3.5 kmh 29.92 in1013.2 mb 0.00 in0.0 mm 0.00 in0.0 mm 0.00 in0.0 mm
03:38 AM 74.5°F23.6°C 66.7°F19.3°C 77% 0.7 mph E1.1 kmh E 2.2 mph3.5 kmh 29.92 in1013.2 mb 0.00 in0.0 mm 0.00 in0.0 mm 0.00 in0.0 mm
03:43 AM 74.5°F23.6°C 67.1°F19.5°C 78% 2.2 mph NE3.5 kmh NE 3.1 mph5.0 kmh 29.92 in1013.2 mb 0.00 in0.0 mm 0.00 in0.0 mm 0.00 in0.0 mm
03:48 AM 74.5°F23.6°C 67.1°F19.5°C 78% 1.6 mph ENE2.6 kmh ENE 3.1 mph5.0 kmh 29.92 in1013.2 mb 0.00 in0.0 mm 0.00 in0.0 mm 0.00 in0.0 mm
03:53 AM 74.5°F23.6°C 67.1°F19.5°C 78% 2.2 mph NE3.5 kmh NE 3.1 mph5.0 kmh 29.92 in1013.2 mb 0.00 in0.0 mm 0.00 in0.0 mm 0.00 in0.0 mm
03:59 AM 74.5°F23.6°C 67.1°F19.5°C 78% 0.7 mph E1.1 kmh E 3.1 mph5.0 kmh 29.92 in1013.2 mb 0.00 in0.0 mm 0.00 in0.0 mm 0.00 in0.0 mm
04:04 AM 74.3°F23.5°C 66.9°F19.4°C 78% 1.6 mph 2.6 kmh 3.1 mph5.0 kmh 29.92 in1013.2 mb 0.00 in0.0 mm 0.00 in0.0 mm 0.00 in0.0 mm
04:09 AM 74.1°F23.4°C 67.1°F19.5°C 79% 0.7 mph NE1.1 kmh NE 2.2 mph3.5 kmh 29.93 in1013.5 mb 0.00 in0.0 mm 0.00 in0.0 mm 0.00 in0.0 mm
04:14 AM 74.1°F23.4°C 67.1°F19.5°C 79% 0.7 mph NE1.1 kmh NE 3.1 mph5.0 kmh 29.93 in1013.5 mb 0.00 in0.0 mm 0.00 in0.0 mm 0.00 in0.0 mm
04:19 AM 74.1°F23.4°C 67.1°F19.5°C 79% 2.2 mph NE3.5 kmh NE 3.8 mph6.1 kmh 29.93 in1013.5 mb 0.00 in0.0 mm 0.00 in0.0 mm 0.00 in0.0 mm
04:24 AM 74.1°F23.4°C 67.1°F19.5°C 79% 2.2 mph ENE3.5 kmh ENE 4.5 mph7.2 kmh 29.93 in1013.5 mb 0.00 in0.0 mm 0.00 in0.0 mm 0.00 in0.0 mm
04:30 AM 74.1°F23.4°C 67.1°F19.5°C 79% 3.1 mph NE5.0 kmh NE 6.0 mph9.7 kmh 29.93 in1013.5 mb 0.00 in0.0 mm 0.00 in0.0 mm 0.00 in0.0 mm
04:35 AM 73.9°F23.3°C 67.1°F19.5°C 79% 3.1 mph NE5.0 kmh NE 7.6 mph12.2 kmh 29.93 in1013.5 mb 0.00 in0.0 mm 0.00 in0.0 mm 0.00 in0.0 mm
04:40 AM 73.6°F23.1°C 67.1°F19.5°C 80% 2.2 mph E3.5 kmh E 5.4 mph8.7 kmh 29.93 in1013.5 mb 0.00 in0.0 mm 0.00 in0.0 mm 0.00 in0.0 mm
04:45 AM 73.2°F22.9°C 66.7°F19.3°C 80% 1.6 mph E2.6 kmh E 4.5 mph7.2 kmh 29.93 in1013.5 mb 0.00 in0.0 mm 0.00 in0.0 mm 0.00 in0.0 mm
04:50 AM 73.2°F22.9°C 67.1°F19.5°C 81% 3.1 mph NE5.0 kmh NE 4.5 mph7.2 kmh 29.93 in1013.5 mb 0.00 in0.0 mm 0.00 in0.0 mm 0.00 in0.0 mm
04:55 AM 73.2°F22.9°C 66.7°F19.3°C 80% 1.6 mph E2.6 kmh E 3.8 mph6.1 kmh 29.93 in1013.5 mb 0.00 in0.0 mm 0.00 in0.0 mm 0.00 in0.0 mm
05:01 AM 73.2°F22.9°C 66.7°F19.3°C 80% 3.1 mph E5.0 kmh E 5.4 mph8.7 kmh 29.93 in1013.5 mb 0.00 in0.0 mm 0.00 in0.0 mm 0.00 in0.0 mm
05:06 AM 73.0°F22.8°C 66.6°F19.2°C 80% 1.6 mph NE2.6 kmh NE 4.5 mph7.2 kmh 29.93 in1013.5 mb 0.00 in0.0 mm 0.00 in0.0 mm 0.00 in0.0 mm
05:11 AM 73.0°F22.8°C 66.9°F19.4°C 81% 3.1 mph E5.0 kmh E 4.5 mph7.2 kmh 29.93 in1013.5 mb 0.00 in0.0 mm 0.00 in0.0 mm 0.00 in0.0 mm
05:16 AM 72.9°F22.7°C 66.7°F19.3°C 81% 3.8 mph E6.1 kmh E 5.4 mph8.7 kmh 29.93 in1013.5 mb 0.00 in0.0 mm 0.00 in0.0 mm 0.00 in0.0 mm
05:21 AM 72.9°F22.7°C 66.7°F19.3°C 81% 2.2 mph NE3.5 kmh NE 6.9 mph11.1 kmh 29.93 in1013.5 mb 0.00 in0.0 mm 0.00 in0.0 mm 0.00 in0.0 mm
05:26 AM 72.9°F22.7°C 66.7°F19.3°C 81% 2.2 mph NE3.5 kmh NE 5.4 mph8.7 kmh 29.93 in1013.5 mb 0.00 in0.0 mm 0.00 in0.0 mm 0.00 in0.0 mm
05:32 AM 72.9°F22.7°C 66.4°F19.1°C 80% 3.1 mph ENE5.0 kmh ENE 4.5 mph7.2 kmh 29.93 in1013.5 mb 0.00 in0.0 mm 0.00 in0.0 mm 0.00 in0.0 mm
05:37 AM 72.7°F22.6°C 66.2°F19.0°C 80% 1.6 mph NE2.6 kmh NE 3.8 mph6.1 kmh 29.93 in1013.5 mb 0.00 in0.0 mm 0.00 in0.0 mm 0.00 in0.0 mm
05:42 AM 72.7°F22.6°C 66.2°F19.0°C 80% 2.2 mph 3.5 kmh 5.4 mph8.7 kmh 29.93 in1013.5 mb 0.00 in0.0 mm 0.00 in0.0 mm 0.00 in0.0 mm
05:47 AM 72.7°F22.6°C 66.2°F19.0°C 80% 1.6 mph E2.6 kmh E 3.8 mph6.1 kmh 29.93 in1013.5 mb 0.00 in0.0 mm 0.00 in0.0 mm 0.00 in0.0 mm
05:52 AM 72.5°F22.5°C 66.0°F18.9°C 80% 1.6 mph NE2.6 kmh NE 4.5 mph7.2 kmh 29.93 in1013.5 mb 0.00 in0.0 mm 0.00 in0.0 mm 0.00 in0.0 mm
05:57 AM 72.5°F22.5°C 66.0°F18.9°C 80% 0.7 mph NE1.1 kmh NE 3.1 mph5.0 kmh 29.93 in1013.5 mb 0.00 in0.0 mm 0.00 in0.0 mm 0.00 in0.0 mm
06:03 AM 72.5°F22.5°C 66.0°F18.9°C 80% 2.2 mph NE3.5 kmh NE 3.1 mph5.0 kmh 29.93 in1013.5 mb 0.00 in0.0 mm 0.00 in0.0 mm 0.00 in0.0 mm
06:08 AM 72.5°F22.5°C 65.7°F18.7°C 79% 2.2 mph NE3.5 kmh NE 5.4 mph8.7 kmh 29.93 in1013.5 mb 0.00 in0.0 mm 0.00 in0.0 mm 0.00 in0.0 mm
06:13 AM 72.9°F22.7°C 66.0°F18.9°C 79% 2.2 mph NE3.5 kmh NE 3.8 mph6.1 kmh 29.93 in1013.5 mb 0.00 in0.0 mm 0.00 in0.0 mm 0.00 in0.0 mm
06:18 AM 73.4°F23.0°C 66.2°F19.0°C 78% 2.2 mph E3.5 kmh E 5.4 mph8.7 kmh 29.93 in1013.5 mb 0.00 in0.0 mm 0.00 in0.0 mm 0.00 in0.0 mm
06:23 AM 73.8°F23.2°C 66.0°F18.9°C 77% 2.2 mph NE3.5 kmh NE 3.8 mph6.1 kmh 29.94 in1013.9 mb 0.00 in0.0 mm 0.00 in0.0 mm 0.00 in0.0 mm
06:29 AM 74.3°F23.5°C 65.8°F18.8°C 75% 1.6 mph NE2.6 kmh NE 3.8 mph6.1 kmh 29.94 in1013.9 mb 0.00 in0.0 mm 0.00 in0.0 mm 0.00 in0.0 mm
06:34 AM 74.7°F23.7°C 65.8°F18.8°C 74% 3.1 mph NNE5.0 kmh NNE 4.5 mph7.2 kmh 29.94 in1013.9 mb 0.00 in0.0 mm 0.00 in0.0 mm 0.00 in0.0 mm
06:39 AM 75.2°F24.0°C 66.0°F18.9°C 73% 1.6 mph NE2.6 kmh NE 4.5 mph7.2 kmh 29.94 in1013.9 mb 0.00 in0.0 mm 0.00 in0.0 mm 0.00 in0.0 mm
06:44 AM 75.9°F24.4°C 65.8°F18.8°C 71% 3.1 mph NE5.0 kmh NE 5.4 mph8.7 kmh 29.94 in1013.9 mb 0.00 in0.0 mm 0.00 in0.0 mm 0.00 in0.0 mm
06:49 AM 76.1°F24.5°C 65.7°F18.7°C 70% 2.2 mph NE3.5 kmh NE 4.5 mph7.2 kmh 29.94 in1013.9 mb 0.00 in0.0 mm 0.00 in0.0 mm 0.00 in0.0 mm
06:54 AM 76.8°F24.9°C 65.8°F18.8°C 69% 1.6 mph NE2.6 kmh NE 3.1 mph5.0 kmh 29.95 in1014.2 mb 0.00 in0.0 mm 0.00 in0.0 mm 0.00 in0.0 mm
07:00 AM 77.7°F25.4°C 66.4°F19.1°C 68% 1.6 mph E2.6 kmh E 3.8 mph6.1 kmh 29.95 in1014.2 mb 0.00 in0.0 mm 0.00 in0.0 mm 0.00 in0.0 mm
07:05 AM 77.9°F25.5°C 65.1°F18.4°C 65% 2.2 mph 3.5 kmh 5.4 mph8.7 kmh 29.95 in1014.2 mb 0.00 in0.0 mm 0.00 in0.0 mm 0.00 in0.0 mm
07:10 AM 78.3°F25.7°C 65.1°F18.4°C 64% 1.6 mph NE2.6 kmh NE 3.8 mph6.1 kmh 29.95 in1014.2 mb 0.00 in0.0 mm 0.00 in0.0 mm 0.00 in0.0 mm
07:15 AM 78.8°F26.0°C 65.1°F18.4°C 63% 1.6 mph 2.6 kmh 3.8 mph6.1 kmh 29.95 in1014.2 mb 0.00 in0.0 mm 0.00 in0.0 mm 0.00 in0.0 mm
07:20 AM 79.5°F26.4°C 65.3°F18.5°C 62% 0.7 mph NE1.1 kmh NE 3.8 mph6.1 kmh 29.95 in1014.2 mb 0.00 in0.0 mm 0.00 in0.0 mm 0.00 in0.0 mm
07:25 AM 79.7°F26.5°C 65.5°F18.6°C 62% 3.8 mph 6.1 kmh 5.4 mph8.7 kmh 29.95 in1014.2 mb 0.00 in0.0 mm 0.00 in0.0 mm 0.00 in0.0 mm
07:31 AM 79.7°F26.5°C 65.5°F18.6°C 62% 3.1 mph NE5.0 kmh NE 5.4 mph8.7 kmh 29.95 in1014.2 mb 0.00 in0.0 mm 0.00 in0.0 mm 0.00 in0.0 mm
07:36 AM 80.4°F26.9°C 66.2°F19.0°C 62% 2.2 mph E3.5 kmh E 4.5 mph7.2 kmh 29.95 in1014.2 mb 0.00 in0.0 mm 0.00 in0.0 mm 0.00 in0.0 mm
07:41 AM 80.6°F27.0°C 65.5°F18.6°C 60% 3.1 mph 5.0 kmh 6.0 mph9.7 kmh 29.95 in1014.2 mb 0.00 in0.0 mm 0.00 in0.0 mm 0.00 in0.0 mm
07:46 AM 80.4°F26.9°C 65.3°F18.5°C 60% 4.5 mph 7.2 kmh 7.6 mph12.2 kmh 29.95 in1014.2 mb 0.00 in0.0 mm 0.00 in0.0 mm 0.00 in0.0 mm
07:51 AM 81.0°F27.2°C 65.8°F18.8°C 60% 2.2 mph 3.5 kmh 5.4 mph8.7 kmh 29.95 in1014.2 mb 0.00 in0.0 mm 0.00 in0.0 mm 0.00 in0.0 mm
07:56 AM 81.9°F27.7°C 65.1°F18.4°C 57% 3.8 mph NE6.1 kmh NE 6.9 mph11.1 kmh 29.95 in1014.2 mb 0.00 in0.0 mm 0.00 in0.0 mm 0.00 in0.0 mm
08:02 AM 82.8°F28.2°C 64.9°F18.3°C 55% 3.8 mph 6.1 kmh 6.9 mph11.1 kmh 29.95 in1014.2 mb 0.00 in0.0 mm 0.00 in0.0 mm 0.00 in0.0 mm
08:07 AM 83.5°F28.6°C 64.0°F17.8°C 52% 3.8 mph 6.1 kmh 6.9 mph11.1 kmh 29.95 in1014.2 mb 0.00 in0.0 mm 0.00 in0.0 mm 0.00 in0.0 mm
08:12 AM 84.4°F29.1°C 64.2°F17.9°C 51% 5.4 mph NW8.7 kmh NW 7.6 mph12.2 kmh 29.95 in1014.2 mb 0.00 in0.0 mm 0.00 in0.0 mm 0.00 in0.0 mm
08:17 AM 84.7°F29.3°C 64.6°F18.1°C 51% 3.1 mph 5.0 kmh 7.6 mph12.2 kmh 29.95 in1014.2 mb 0.00 in0.0 mm 0.00 in0.0 mm 0.00 in0.0 mm
08:22 AM 85.5°F29.7°C 64.0°F17.8°C 49% 3.8 mph 6.1 kmh 6.9 mph11.1 kmh 29.95 in1014.2 mb 0.00 in0.0 mm 0.00 in0.0 mm 0.00 in0.0 mm
08:27 AM 85.3°F29.6°C 64.0°F17.8°C 49% 2.2 mph 3.5 kmh 7.6 mph12.2 kmh 29.95 in1014.2 mb 0.00 in0.0 mm 0.00 in0.0 mm 0.00 in0.0 mm
08:33 AM 86.2°F30.1°C 63.5°F17.5°C 47% 3.8 mph 6.1 kmh 8.3 mph13.4 kmh 29.95 in1014.2 mb 0.00 in0.0 mm 0.00 in0.0 mm 0.00 in0.0 mm
08:38 AM 85.8°F29.9°C 63.3°F17.4°C 47% 3.1 mph 5.0 kmh 9.2 mph14.8 kmh 29.95 in1014.2 mb 0.00 in0.0 mm 0.00 in0.0 mm 0.00 in0.0 mm
08:43 AM 87.1°F30.6°C 63.9°F17.7°C 46% 3.1 mph 5.0 kmh 8.3 mph13.4 kmh 29.94 in1013.9 mb 0.00 in0.0 mm 0.00 in0.0 mm 0.00 in0.0 mm
08:48 AM 88.2°F31.2°C 64.2°F17.9°C 45% 6.0 mph 9.7 kmh 7.6 mph12.2 kmh 29.95 in1014.2 mb 0.00 in0.0 mm 0.00 in0.0 mm 0.00 in0.0 mm
08:53 AM 87.8°F31.0°C 63.1°F17.3°C 44% 5.4 mph NNE8.7 kmh NNE 8.3 mph13.4 kmh 29.95 in1014.2 mb 0.00 in0.0 mm 0.00 in0.0 mm 0.00 in0.0 mm
08:58 AM 87.6°F30.9°C 63.7°F17.6°C 45% 4.5 mph 7.2 kmh 8.3 mph13.4 kmh 29.94 in1013.9 mb 0.00 in0.0 mm 0.00 in0.0 mm 0.00 in0.0 mm
09:04 AM 88.2°F31.2°C 63.5°F17.5°C 44% 5.4 mph W8.7 kmh W 7.6 mph12.2 kmh 29.95 in1014.2 mb 0.00 in0.0 mm 0.00 in0.0 mm 0.00 in0.0 mm
09:09 AM 88.2°F31.2°C 63.5°F17.5°C 44% 5.4 mph 8.7 kmh 9.8 mph15.8 kmh 29.95 in1014.2 mb 0.00 in0.0 mm 0.00 in0.0 mm 0.00 in0.0 mm
09:14 AM 88.2°F31.2°C 64.2°F17.9°C 45% 6.0 mph W9.7 kmh W 9.8 mph15.8 kmh 29.94 in1013.9 mb 0.00 in0.0 mm 0.00 in0.0 mm 0.00 in0.0 mm
09:19 AM 88.2°F31.2°C 64.8°F18.2°C 46% 2.2 mph SW3.5 kmh SW 8.3 mph13.4 kmh 29.94 in1013.9 mb 0.00 in0.0 mm 0.00 in0.0 mm 0.00 in0.0 mm
09:24 AM 89.1°F31.7°C 64.9°F18.3°C 45% 4.5 mph W7.2 kmh W 9.2 mph14.8 kmh 29.94 in1013.9 mb 0.00 in0.0 mm 0.00 in0.0 mm 0.00 in0.0 mm
09:29 AM 89.1°F31.7°C 64.9°F18.3°C 45% 6.0 mph NW9.7 kmh NW 9.2 mph14.8 kmh 29.94 in1013.9 mb 0.00 in0.0 mm 0.00 in0.0 mm 0.00 in0.0 mm
09:35 AM 89.1°F31.7°C 65.7°F18.7°C 46% 3.8 mph 6.1 kmh 8.3 mph13.4 kmh 29.94 in1013.9 mb 0.00 in0.0 mm 0.00 in0.0 mm 0.00 in0.0 mm
09:40 AM 91.2°F32.9°C 66.2°F19.0°C 44% 4.5 mph W7.2 kmh W 7.6 mph12.2 kmh 29.94 in1013.9 mb 0.00 in0.0 mm 0.00 in0.0 mm 0.00 in0.0 mm
09:45 AM 90.9°F32.7°C 65.3°F18.5°C 43% 3.1 mph W5.0 kmh W 8.3 mph13.4 kmh 29.94 in1013.9 mb 0.00 in0.0 mm 0.00 in0.0 mm 0.00 in0.0 mm
09:50 AM 91.6°F33.1°C 65.8°F18.8°C 43% 3.8 mph 6.1 kmh 6.9 mph11.1 kmh 29.94 in1013.9 mb 0.00 in0.0 mm 0.00 in0.0 mm 0.00 in0.0 mm
09:55 AM 91.8°F33.2°C 66.0°F18.9°C 43% 5.4 mph 8.7 kmh 7.6 mph12.2 kmh 29.94 in1013.9 mb 0.00 in0.0 mm 0.00 in0.0 mm 0.00 in0.0 mm
10:00 AM 92.5°F33.6°C 66.0°F18.9°C 42% 3.8 mph NE6.1 kmh NE 6.9 mph11.1 kmh 29.94 in1013.9 mb 0.00 in0.0 mm 0.00 in0.0 mm 0.00 in0.0 mm
10:06 AM 92.8°F33.8°C 66.4°F19.1°C 42% 4.5 mph 7.2 kmh 6.9 mph11.1 kmh 29.94 in1013.9 mb 0.00 in0.0 mm 0.00 in0.0 mm 0.00 in0.0 mm
10:11 AM 93.0°F33.9°C 66.6°F19.2°C 42% 3.8 mph NW6.1 kmh NW 7.6 mph12.2 kmh 29.93 in1013.5 mb 0.00 in0.0 mm 0.00 in0.0 mm 0.00 in0.0 mm
10:16 AM 93.7°F34.3°C 67.1°F19.5°C 42% 3.1 mph NW5.0 kmh NW 6.9 mph11.1 kmh 29.94 in1013.9 mb 0.00 in0.0 mm 0.00 in0.0 mm 0.00 in0.0 mm
10:21 AM 95.5°F35.3°C 67.3°F19.6°C 40% 4.5 mph 7.2 kmh 6.0 mph9.7 kmh 29.93 in1013.5 mb 0.00 in0.0 mm 0.00 in0.0 mm 0.00 in0.0 mm
10:26 AM 95.5°F35.3°C 67.3°F19.6°C 40% 6.0 mph NW9.7 kmh NW 8.3 mph13.4 kmh 29.94 in1013.9 mb 0.00 in0.0 mm 0.00 in0.0 mm 0.00 in0.0 mm
10:31 AM 94.8°F34.9°C 66.7°F19.3°C 40% 3.8 mph W6.1 kmh W 8.3 mph13.4 kmh 29.93 in1013.5 mb 0.00 in0.0 mm 0.00 in0.0 mm 0.00 in0.0 mm
10:37 AM 95.4°F35.2°C 67.3°F19.6°C 40% 4.5 mph SW7.2 kmh SW 6.9 mph11.1 kmh 29.93 in1013.5 mb 0.00 in0.0 mm 0.00 in0.0 mm 0.00 in0.0 mm
10:42 AM 94.5°F34.7°C 65.7°F18.7°C 39% 5.4 mph NW8.7 kmh NW 10.7 mph17.2 kmh 29.93 in1013.5 mb 0.00 in0.0 mm 0.00 in0.0 mm 0.00 in0.0 mm
10:47 AM 94.5°F34.7°C 66.4°F19.1°C 40% 6.0 mph W9.7 kmh W 9.2 mph14.8 kmh 29.93 in1013.5 mb 0.00 in0.0 mm 0.00 in0.0 mm 0.00 in0.0 mm
10:52 AM 94.6°F34.8°C 66.6°F19.2°C 40% 3.1 mph NW5.0 kmh NW 7.6 mph12.2 kmh 29.93 in1013.5 mb 0.00 in0.0 mm 0.00 in0.0 mm 0.00 in0.0 mm
10:57 AM 95.0°F35.0°C 66.9°F19.4°C 40% 4.5 mph NNW7.2 kmh NNW 9.8 mph15.8 kmh 29.93 in1013.5 mb 0.00 in0.0 mm 0.00 in0.0 mm 0.00 in0.0 mm
11:02 AM 95.2°F35.1°C 67.1°F19.5°C 40% 6.0 mph NW9.7 kmh NW 8.3 mph13.4 kmh 29.93 in1013.5 mb 0.00 in0.0 mm 0.00 in0.0 mm 0.00 in0.0 mm
11:08 AM 95.5°F35.3°C 67.3°F19.6°C 40% 5.4 mph NW8.7 kmh NW 9.2 mph14.8 kmh 29.93 in1013.5 mb 0.00 in0.0 mm 0.00 in0.0 mm 0.00 in0.0 mm
11:13 AM 96.4°F35.8°C 67.5°F19.7°C 39% 3.8 mph SSW6.1 kmh SSW 8.3 mph13.4 kmh 29.93 in1013.5 mb 0.00 in0.0 mm 0.00 in0.0 mm 0.00 in0.0 mm
11:18 AM 96.1°F35.6°C 66.4°F19.1°C 38% 3.8 mph W6.1 kmh W 9.2 mph14.8 kmh 29.93 in1013.5 mb 0.00 in0.0 mm 0.00 in0.0 mm 0.00 in0.0 mm
11:23 AM 96.6°F35.9°C 66.9°F19.4°C 38% 2.2 mph W3.5 kmh W 7.6 mph12.2 kmh 29.93 in1013.5 mb 0.00 in0.0 mm 0.00 in0.0 mm 0.00 in0.0 mm
11:28 AM 96.3°F35.7°C 66.6°F19.2°C 38% 6.0 mph W9.7 kmh W 9.8 mph15.8 kmh 29.93 in1013.5 mb 0.00 in0.0 mm 0.00 in0.0 mm 0.00 in0.0 mm
11:33 AM 96.4°F35.8°C 66.7°F19.3°C 38% 5.4 mph NW8.7 kmh NW 8.3 mph13.4 kmh 29.92 in1013.2 mb 0.00 in0.0 mm 0.00 in0.0 mm 0.00 in0.0 mm
11:39 AM 96.3°F35.7°C 65.7°F18.7°C 37% 4.5 mph 7.2 kmh 11.4 mph18.3 kmh 29.92 in1013.2 mb 0.00 in0.0 mm 0.00 in0.0 mm 0.00 in0.0 mm
11:44 AM 96.1°F35.6°C 66.4°F19.1°C 38% 3.1 mph 5.0 kmh 9.2 mph14.8 kmh 29.92 in1013.2 mb 0.00 in0.0 mm 0.00 in0.0 mm 0.00 in0.0 mm
11:49 AM 97.0°F36.1°C 66.4°F19.1°C 37% 6.0 mph SW9.7 kmh SW 7.6 mph12.2 kmh 29.92 in1013.2 mb 0.00 in0.0 mm 0.00 in0.0 mm 0.00 in0.0 mm
11:54 AM 96.8°F36.0°C 65.5°F18.6°C 36% 6.9 mph NW11.1 kmh NW 11.4 mph18.3 kmh 29.92 in1013.2 mb 0.00 in0.0 mm 0.00 in0.0 mm 0.00 in0.0 mm
11:59 AM 97.3°F36.3°C 65.8°F18.8°C 36% 4.5 mph NNW7.2 kmh NNW 8.3 mph13.4 kmh 29.92 in1013.2 mb 0.00 in0.0 mm 0.00 in0.0 mm 0.00 in0.0 mm
12:04 PM 98.4°F36.9°C 66.9°F19.4°C 36% 5.4 mph NW8.7 kmh NW 6.9 mph11.1 kmh 29.92 in1013.2 mb 0.00 in0.0 mm 0.00 in0.0 mm 0.00 in0.0 mm
12:10 PM 98.1°F36.7°C 66.6°F19.2°C 36% 6.0 mph 9.7 kmh 13.6 mph21.9 kmh 29.92 in1013.2 mb 0.00 in0.0 mm 0.00 in0.0 mm 0.00 in0.0 mm
12:15 PM 99.0°F37.2°C 66.6°F19.2°C 35% 3.1 mph W5.0 kmh W 9.8 mph15.8 kmh 29.91 in1012.9 mb 0.00 in0.0 mm 0.00 in0.0 mm 0.00 in0.0 mm
12:20 PM 99.7°F37.6°C 65.5°F18.6°C 33% 4.5 mph NNE7.2 kmh NNE 7.6 mph12.2 kmh 29.91 in1012.9 mb 0.00 in0.0 mm 0.00 in0.0 mm 0.00 in0.0 mm
12:25 PM 101.1°F38.4°C 66.7°F19.3°C 33% 1.6 mph SW2.6 kmh SW 6.0 mph9.7 kmh 29.91 in1012.9 mb 0.00 in0.0 mm 0.00 in0.0 mm 0.00 in0.0 mm
12:30 PM 101.8°F38.8°C 65.5°F18.6°C 31% 8.3 mph NW13.4 kmh NW 11.4 mph18.3 kmh 29.91 in1012.9 mb 0.00 in0.0 mm 0.00 in0.0 mm 0.00 in0.0 mm
12:36 PM 98.6°F37.0°C 65.3°F18.5°C 34% 6.0 mph NW9.7 kmh NW 12.1 mph19.5 kmh 29.91 in1012.9 mb 0.00 in0.0 mm 0.00 in0.0 mm 0.00 in0.0 mm
12:41 PM 97.0°F36.1°C 63.1°F17.3°C 33% 2.2 mph 3.5 kmh 7.6 mph12.2 kmh 29.91 in1012.9 mb 0.00 in0.0 mm 0.00 in0.0 mm 0.00 in0.0 mm
12:46 PM 97.7°F36.5°C 64.6°F18.1°C 34% 4.5 mph NW7.2 kmh NW 6.9 mph11.1 kmh 29.91 in1012.9 mb 0.00 in0.0 mm 0.00 in0.0 mm 0.00 in0.0 mm
12:51 PM 98.1°F36.7°C 64.9°F18.3°C 34% 3.1 mph 5.0 kmh 6.9 mph11.1 kmh 29.91 in1012.9 mb 0.00 in0.0 mm 0.00 in0.0 mm 0.00 in0.0 mm
12:56 PM 97.3°F36.3°C 64.2°F17.9°C 34% 3.1 mph 5.0 kmh 6.0 mph9.7 kmh 29.91 in1012.9 mb 0.00 in0.0 mm 0.00 in0.0 mm 0.00 in0.0 mm
01:01 PM 98.6°F37.0°C 65.3°F18.5°C 34% 1.6 mph W2.6 kmh W 4.5 mph7.2 kmh 29.91 in1012.9 mb 0.00 in0.0 mm 0.00 in0.0 mm 0.00 in0.0 mm
01:07 PM 99.3°F37.4°C 66.9°F19.4°C 35% 4.5 mph 7.2 kmh 7.6 mph12.2 kmh 29.90 in1012.5 mb 0.00 in0.0 mm 0.00 in0.0 mm 0.00 in0.0 mm
01:12 PM 97.0°F36.1°C 64.0°F17.8°C 34% 3.8 mph W6.1 kmh W 8.3 mph13.4 kmh 29.90 in1012.5 mb 0.00 in0.0 mm 0.00 in0.0 mm 0.00 in0.0 mm
01:17 PM 97.7°F36.5°C 65.5°F18.6°C 35% 6.0 mph NW9.7 kmh NW 7.6 mph12.2 kmh 29.90 in1012.5 mb 0.00 in0.0 mm 0.00 in0.0 mm 0.00 in0.0 mm
01:22 PM 96.4°F35.8°C 64.4°F18.0°C 35% 3.1 mph W5.0 kmh W 7.6 mph12.2 kmh 29.90 in1012.5 mb 0.00 in0.0 mm 0.00 in0.0 mm 0.00 in0.0 mm
01:27 PM 95.9°F35.5°C 63.9°F17.7°C 35% 2.2 mph W3.5 kmh W 6.9 mph11.1 kmh 29.90 in1012.5 mb 0.00 in0.0 mm 0.00 in0.0 mm 0.00 in0.0 mm
01:32 PM 95.9°F35.5°C 63.9°F17.7°C 35% 1.6 mph NW2.6 kmh NW 4.5 mph7.2 kmh 29.89 in1012.2 mb 0.00 in0.0 mm 0.00 in0.0 mm 0.00 in0.0 mm
01:38 PM 97.5°F36.4°C 65.3°F18.5°C 35% 2.2 mph NW3.5 kmh NW 4.5 mph7.2 kmh 29.89 in1012.2 mb 0.00 in0.0 mm 0.00 in0.0 mm 0.00 in0.0 mm
01:43 PM 99.9°F37.7°C 64.8°F18.2°C 32% 4.5 mph NE7.2 kmh NE 6.9 mph11.1 kmh 29.88 in1011.9 mb 0.00 in0.0 mm 0.00 in0.0 mm 0.00 in0.0 mm
01:48 PM 101.1°F38.4°C 65.8°F18.8°C 32% 4.5 mph NNW7.2 kmh NNW 5.4 mph8.7 kmh 29.88 in1011.9 mb 0.00 in0.0 mm 0.00 in0.0 mm 0.00 in0.0 mm
01:53 PM 99.7°F37.6°C 64.6°F18.1°C 32% 2.2 mph NE3.5 kmh NE 9.2 mph14.8 kmh 29.88 in1011.9 mb 0.00 in0.0 mm 0.00 in0.0 mm 0.00 in0.0 mm
01:58 PM 97.9°F36.6°C 64.8°F18.2°C 34% 5.4 mph NW8.7 kmh NW 8.3 mph13.4 kmh 29.88 in1011.9 mb 0.00 in0.0 mm 0.00 in0.0 mm 0.00 in0.0 mm
02:03 PM 96.6°F35.9°C 63.7°F17.6°C 34% 3.1 mph NW5.0 kmh NW 6.9 mph11.1 kmh 29.88 in1011.9 mb 0.00 in0.0 mm 0.00 in0.0 mm 0.00 in0.0 mm
02:09 PM 95.9°F35.5°C 63.0°F17.2°C 34% 2.2 mph W3.5 kmh W 6.9 mph11.1 kmh 29.88 in1011.9 mb 0.00 in0.0 mm 0.00 in0.0 mm 0.00 in0.0 mm
02:14 PM 95.9°F35.5°C 63.0°F17.2°C 34% 3.1 mph W5.0 kmh W 4.5 mph7.2 kmh 29.88 in1011.9 mb 0.00 in0.0 mm 0.00 in0.0 mm 0.00 in0.0 mm
02:19 PM 95.9°F35.5°C 63.0°F17.2°C 34% 1.6 mph SW2.6 kmh SW 3.8 mph6.1 kmh 29.87 in1011.5 mb 0.00 in0.0 mm 0.00 in0.0 mm 0.00 in0.0 mm
02:24 PM 96.1°F35.6°C 63.1°F17.3°C 34% 2.2 mph NW3.5 kmh NW 7.6 mph12.2 kmh 29.87 in1011.5 mb 0.00 in0.0 mm 0.00 in0.0 mm 0.00 in0.0 mm
02:29 PM 96.4°F35.8°C 62.6°F17.0°C 33% 2.2 mph W3.5 kmh W 3.8 mph6.1 kmh 29.87 in1011.5 mb 0.00 in0.0 mm 0.00 in0.0 mm 0.00 in0.0 mm
02:34 PM 97.2°F36.2°C 63.3°F17.4°C 33% 1.6 mph SE2.6 kmh SE 3.1 mph5.0 kmh 29.87 in1011.5 mb 0.00 in0.0 mm 0.00 in0.0 mm 0.00 in0.0 mm
02:40 PM 97.3°F36.3°C 64.2°F17.9°C 34% 2.2 mph NE3.5 kmh NE 3.8 mph6.1 kmh 29.86 in1011.2 mb 0.00 in0.0 mm 0.00 in0.0 mm 0.00 in0.0 mm
02:45 PM 95.9°F35.5°C 63.9°F17.7°C 35% 4.5 mph NNE7.2 kmh NNE 8.3 mph13.4 kmh 29.86 in1011.2 mb 0.00 in0.0 mm 0.00 in0.0 mm 0.00 in0.0 mm
02:50 PM 95.9°F35.5°C 63.0°F17.2°C 34% 3.1 mph NE5.0 kmh NE 6.0 mph9.7 kmh 29.85 in1010.8 mb 0.00 in0.0 mm 0.00 in0.0 mm 0.00 in0.0 mm
02:55 PM 96.4°F35.8°C 62.6°F17.0°C 33% 3.1 mph NE5.0 kmh NE 6.9 mph11.1 kmh 29.86 in1011.2 mb 0.00 in0.0 mm 0.00 in0.0 mm 0.00 in0.0 mm
03:00 PM 96.4°F35.8°C 63.5°F17.5°C 34% 6.0 mph NE9.7 kmh NE 8.3 mph13.4 kmh 29.85 in1010.8 mb 0.00 in0.0 mm 0.00 in0.0 mm 0.00 in0.0 mm
03:05 PM 93.2°F34.0°C 67.5°F19.7°C 43% 7.6 mph E12.2 kmh E 13.6 mph21.9 kmh 29.86 in1011.2 mb 0.00 in0.0 mm 0.00 in0.0 mm 0.03 in0.8 mm
03:11 PM 84.9°F29.4°C 66.9°F19.4°C 55% 3.1 mph SE5.0 kmh SE 17.4 mph28.0 kmh 29.86 in1011.2 mb 0.08 in2.0 mm 0.80 in20.3 mm 0.08 in2.0 mm
03:16 PM 84.7°F29.3°C 68.9°F20.5°C 59% 5.4 mph E8.7 kmh E 7.6 mph12.2 kmh 29.85 in1010.8 mb 0.08 in2.0 mm 0.00 in0.0 mm 0.08 in2.0 mm
03:21 PM 85.8°F29.9°C 69.3°F20.7°C 58% 3.1 mph SSW5.0 kmh SSW 6.9 mph11.1 kmh 29.85 in1010.8 mb 0.08 in2.0 mm 0.00 in0.0 mm 0.08 in2.0 mm
03:26 PM 86.9°F30.5°C 66.6°F19.2°C 51% 4.5 mph NE7.2 kmh NE 8.3 mph13.4 kmh 29.85 in1010.8 mb 0.09 in2.3 mm 0.12 in3.0 mm 0.09 in2.3 mm
03:31 PM 88.3°F31.3°C 66.7°F19.3°C 49% 2.2 mph E3.5 kmh E 7.6 mph12.2 kmh 29.85 in1010.8 mb 0.09 in2.3 mm 0.00 in0.0 mm 0.09 in2.3 mm
03:36 PM 91.4°F33.0°C 73.9°F23.3°C 57% 5.4 mph 8.7 kmh 6.0 mph9.7 kmh 29.86 in1011.2 mb 0.09 in2.3 mm 0.00 in0.0 mm 0.09 in2.3 mm
03:42 PM 86.2°F30.1°C 64.2°F17.9°C 48% 15.9 mph 25.6 kmh 30.4 mph48.9 kmh 29.85 in1010.8 mb 0.09 in2.3 mm 0.00 in0.0 mm 0.09 in2.3 mm
03:47 PM 87.6°F30.9°C 63.7°F17.6°C 45% 9.2 mph E14.8 kmh E 21.3 mph34.3 kmh 29.85 in1010.8 mb 0.09 in2.3 mm 0.00 in0.0 mm 0.09 in2.3 mm
03:52 PM 88.3°F31.3°C 65.5°F18.6°C 47% 5.4 mph E8.7 kmh E 13.0 mph20.9 kmh 29.84 in1010.5 mb 0.09 in2.3 mm 0.00 in0.0 mm 0.09 in2.3 mm
03:57 PM 90.7°F32.6°C 65.8°F18.8°C 44% 6.9 mph E11.1 kmh E 9.2 mph14.8 kmh 29.84 in1010.5 mb 0.09 in2.3 mm 0.00 in0.0 mm 0.09 in2.3 mm
04:02 PM 92.5°F33.6°C 66.0°F18.9°C 42% 3.1 mph E5.0 kmh E 6.9 mph11.1 kmh 29.84 in1010.5 mb 0.09 in2.3 mm 0.00 in0.0 mm 0.09 in2.3 mm
04:07 PM 94.3°F34.6°C 66.2°F19.0°C 40% 3.1 mph E5.0 kmh E 4.5 mph7.2 kmh 29.84 in1010.5 mb 0.04 in1.0 mm 0.00 in0.0 mm 0.09 in2.3 mm
04:13 PM 93.6°F34.2°C 66.4°F19.1°C 41% 4.5 mph E7.2 kmh E 7.6 mph12.2 kmh 29.83 in1010.2 mb 0.01 in0.3 mm 0.00 in0.0 mm 0.09 in2.3 mm
04:18 PM 92.7°F33.7°C 66.2°F19.0°C 42% 7.6 mph E12.2 kmh E 9.8 mph15.8 kmh 29.84 in1010.5 mb 0.01 in0.3 mm 0.00 in0.0 mm 0.09 in2.3 mm
04:23 PM 91.0°F32.8°C 65.5°F18.6°C 43% 5.4 mph E8.7 kmh E 9.8 mph15.8 kmh 29.83 in1010.2 mb 0.00 in0.0 mm 0.00 in0.0 mm 0.09 in2.3 mm
04:28 PM 90.3°F32.4°C 66.0°F18.9°C 45% 6.0 mph E9.7 kmh E 8.3 mph13.4 kmh 29.83 in1010.2 mb 0.00 in0.0 mm 0.00 in0.0 mm 0.09 in2.3 mm
04:33 PM 90.3°F32.4°C 66.0°F18.9°C 45% 4.5 mph E7.2 kmh E 8.3 mph13.4 kmh 29.83 in1010.2 mb 0.00 in0.0 mm 0.00 in0.0 mm 0.09 in2.3 mm
04:38 PM 90.7°F32.6°C 65.8°F18.8°C 44% 4.5 mph E7.2 kmh E 9.2 mph14.8 kmh 29.83 in1010.2 mb 0.00 in0.0 mm 0.00 in0.0 mm 0.09 in2.3 mm
04:44 PM 91.8°F33.2°C 66.0°F18.9°C 43% 6.0 mph E9.7 kmh E 9.8 mph15.8 kmh 29.83 in1010.2 mb 0.00 in0.0 mm 0.00 in0.0 mm 0.09 in2.3 mm
04:49 PM 91.8°F33.2°C 66.0°F18.9°C 43% 5.4 mph E8.7 kmh E 8.3 mph13.4 kmh 29.83 in1010.2 mb 0.00 in0.0 mm 0.00 in0.0 mm 0.09 in2.3 mm
04:54 PM 91.2°F32.9°C 66.2°F19.0°C 44% 3.8 mph E6.1 kmh E 10.7 mph17.2 kmh 29.83 in1010.2 mb 0.00 in0.0 mm 0.00 in0.0 mm 0.09 in2.3 mm
04:59 PM 91.0°F32.8°C 66.0°F18.9°C 44% 3.8 mph SSW6.1 kmh SSW 6.9 mph11.1 kmh 29.83 in1010.2 mb 0.00 in0.0 mm 0.00 in0.0 mm 0.09 in2.3 mm
05:04 PM 90.9°F32.7°C 65.8°F18.8°C 44% 3.1 mph S5.0 kmh S 6.0 mph9.7 kmh 29.83 in1010.2 mb 0.00 in0.0 mm 0.00 in0.0 mm 0.09 in2.3 mm
05:09 PM 91.0°F32.8°C 65.5°F18.6°C 43% 3.8 mph E6.1 kmh E 6.9 mph11.1 kmh 29.82 in1009.8 mb 0.00 in0.0 mm 0.00 in0.0 mm 0.09 in2.3 mm
05:15 PM 91.4°F33.0°C 66.4°F19.1°C 44% 3.1 mph ENE5.0 kmh ENE 6.9 mph11.1 kmh 29.82 in1009.8 mb 0.00 in0.0 mm 0.00 in0.0 mm 0.09 in2.3 mm
05:20 PM 91.8°F33.2°C 66.0°F18.9°C 43% 3.1 mph NE5.0 kmh NE 6.9 mph11.1 kmh 29.83 in1010.2 mb 0.00 in0.0 mm 0.00 in0.0 mm 0.09 in2.3 mm
05:25 PM 92.1°F33.4°C 67.1°F19.5°C 44% 2.2 mph NE3.5 kmh NE 4.5 mph7.2 kmh 29.83 in1010.2 mb 0.00 in0.0 mm 0.00 in0.0 mm 0.09 in2.3 mm
05:30 PM 91.8°F33.2°C 66.7°F19.3°C 44% 0.7 mph W1.1 kmh W 6.9 mph11.1 kmh 29.82 in1009.8 mb 0.00 in0.0 mm 0.00 in0.0 mm 0.09 in2.3 mm
05:35 PM 91.4°F33.0°C 65.8°F18.8°C 43% 3.8 mph NE6.1 kmh NE 5.4 mph8.7 kmh 29.82 in1009.8 mb 0.00 in0.0 mm 0.00 in0.0 mm 0.09 in2.3 mm
05:40 PM 90.7°F32.6°C 65.8°F18.8°C 44% 3.1 mph NE5.0 kmh NE 6.0 mph9.7 kmh 29.82 in1009.8 mb 0.00 in0.0 mm 0.00 in0.0 mm 0.09 in2.3 mm
05:46 PM 90.5°F32.5°C 66.2°F19.0°C 45% 2.2 mph W3.5 kmh W 3.8 mph6.1 kmh 29.82 in1009.8 mb 0.00 in0.0 mm 0.00 in0.0 mm 0.09 in2.3 mm
05:51 PM 90.7°F32.6°C 67.1°F19.5°C 46% 1.6 mph NE2.6 kmh NE 3.8 mph6.1 kmh 29.82 in1009.8 mb 0.00 in0.0 mm 0.00 in0.0 mm 0.09 in2.3 mm
05:56 PM 90.5°F32.5°C 66.2°F19.0°C 45% 2.2 mph 3.5 kmh 5.4 mph8.7 kmh 29.82 in1009.8 mb 0.00 in0.0 mm 0.00 in0.0 mm 0.09 in2.3 mm
06:01 PM 90.5°F32.5°C 65.7°F18.7°C 44% 3.8 mph 6.1 kmh 5.4 mph8.7 kmh 29.82 in1009.8 mb 0.00 in0.0 mm 0.00 in0.0 mm 0.09 in2.3 mm
06:06 PM 90.3°F32.4°C 66.0°F18.9°C 45% Calm Calm 5.4 mph8.7 kmh 29.81 in1009.5 mb 0.00 in0.0 mm 0.00 in0.0 mm 0.09 in2.3 mm
06:12 PM 90.7°F32.6°C 65.8°F18.8°C 44% 2.2 mph W3.5 kmh W 3.8 mph6.1 kmh 29.81 in1009.5 mb 0.00 in0.0 mm 0.00 in0.0 mm 0.09 in2.3 mm
06:17 PM 89.4°F31.9°C 66.6°F19.2°C 47% 3.8 mph NNE6.1 kmh NNE 8.3 mph13.4 kmh 29.82 in1009.8 mb 0.00 in0.0 mm 0.00 in0.0 mm 0.09 in2.3 mm
06:22 PM 88.3°F31.3°C 66.2°F19.0°C 48% 2.2 mph SSW3.5 kmh SSW 6.9 mph11.1 kmh 29.82 in1009.8 mb 0.00 in0.0 mm 0.00 in0.0 mm 0.09 in2.3 mm
06:27 PM 88.3°F31.3°C 66.2°F19.0°C 48% 0.7 mph NE1.1 kmh NE 3.8 mph6.1 kmh 29.82 in1009.8 mb 0.00 in0.0 mm 0.00 in0.0 mm 0.09 in2.3 mm
06:32 PM 89.2°F31.8°C 66.4°F19.1°C 47% 0.7 mph E1.1 kmh E 3.8 mph6.1 kmh 29.82 in1009.8 mb 0.00 in0.0 mm 0.00 in0.0 mm 0.09 in2.3 mm
06:37 PM 90.9°F32.7°C 66.6°F19.2°C 45% 0.7 mph W1.1 kmh W 2.2 mph3.5 kmh 29.81 in1009.5 mb 0.00 in0.0 mm 0.00 in0.0 mm 0.09 in2.3 mm
06:43 PM 91.9°F33.3°C 67.6°F19.8°C 45% 0.7 mph SW1.1 kmh SW 1.6 mph2.6 kmh 29.82 in1009.8 mb 0.00 in0.0 mm 0.00 in0.0 mm 0.09 in2.3 mm
06:48 PM 91.9°F33.3°C 66.9°F19.4°C 44% 0.7 mph NW1.1 kmh NW 1.6 mph2.6 kmh 29.81 in1009.5 mb 0.00 in0.0 mm 0.00 in0.0 mm 0.09 in2.3 mm
06:53 PM 91.4°F33.0°C 67.6°F19.8°C 46% Calm Calm 2.2 mph3.5 kmh 29.81 in1009.5 mb 0.00 in0.0 mm 0.00 in0.0 mm 0.09 in2.3 mm
06:58 PM 90.5°F32.5°C 67.5°F19.7°C 47% 1.6 mph 2.6 kmh 3.1 mph5.0 kmh 29.82 in1009.8 mb 0.00 in0.0 mm 0.00 in0.0 mm 0.09 in2.3 mm
07:03 PM 90.1°F32.3°C 67.8°F19.9°C 48% 0.7 mph E1.1 kmh E 2.2 mph3.5 kmh 29.82 in1009.8 mb 0.00 in0.0 mm 0.00 in0.0 mm 0.09 in2.3 mm
07:08 PM 90.9°F32.7°C 67.3°F19.6°C 46% Calm Calm 0.7 mph1.1 kmh 29.83 in1010.2 mb 0.00 in0.0 mm 0.00 in0.0 mm 0.09 in2.3 mm
07:14 PM 91.8°F33.2°C 67.5°F19.7°C 45% Calm Calm -- 29.83 in1010.2 mb 0.00 in0.0 mm 0.00 in0.0 mm 0.09 in2.3 mm
07:19 PM 91.2°F32.9°C 67.5°F19.7°C 46% 1.6 mph S2.6 kmh S 3.1 mph5.0 kmh 29.83 in1010.2 mb 0.00 in0.0 mm 0.00 in0.0 mm 0.09 in2.3 mm
07:24 PM 89.8°F32.1°C 67.5°F19.7°C 48% 0.7 mph S1.1 kmh S 3.8 mph6.1 kmh 29.83 in1010.2 mb 0.00 in0.0 mm 0.00 in0.0 mm 0.09 in2.3 mm
07:29 PM 89.6°F32.0°C 68.5°F20.3°C 50% 1.6 mph S2.6 kmh S 3.1 mph5.0 kmh 29.83 in1010.2 mb 0.00 in0.0 mm 0.00 in0.0 mm 0.09 in2.3 mm
07:34 PM 88.3°F31.3°C 67.3°F19.6°C 50% 2.2 mph SE3.5 kmh SE 3.8 mph6.1 kmh 29.83 in1010.2 mb 0.00 in0.0 mm 0.00 in0.0 mm 0.09 in2.3 mm
07:39 PM 88.0°F31.1°C 68.2°F20.1°C 52% 3.1 mph SE5.0 kmh SE 4.5 mph7.2 kmh 29.83 in1010.2 mb 0.00 in0.0 mm 0.00 in0.0 mm 0.09 in2.3 mm
07:45 PM 87.1°F30.6°C 67.3°F19.6°C 52% 1.6 mph SE2.6 kmh SE 4.5 mph7.2 kmh 29.84 in1010.5 mb 0.00 in0.0 mm 0.00 in0.0 mm 0.09 in2.3 mm
07:50 PM 86.7°F30.4°C 68.0°F20.0°C 54% 2.2 mph S3.5 kmh S 4.5 mph7.2 kmh 29.84 in1010.5 mb 0.00 in0.0 mm 0.00 in0.0 mm 0.09 in2.3 mm
07:55 PM 85.5°F29.7°C 67.5°F19.7°C 55% 2.2 mph SE3.5 kmh SE 7.6 mph12.2 kmh 29.84 in1010.5 mb 0.00 in0.0 mm 0.00 in0.0 mm 0.09 in2.3 mm
08:00 PM 84.7°F29.3°C 67.8°F19.9°C 57% 3.8 mph SSE6.1 kmh SSE 6.0 mph9.7 kmh 29.84 in1010.5 mb 0.00 in0.0 mm 0.00 in0.0 mm 0.09 in2.3 mm
08:05 PM 83.8°F28.8°C 67.5°F19.7°C 58% 3.8 mph S6.1 kmh S 6.9 mph11.1 kmh 29.84 in1010.5 mb 0.00 in0.0 mm 0.00 in0.0 mm 0.09 in2.3 mm
08:10 PM 83.1°F28.4°C 67.3°F19.6°C 59% 6.9 mph SE11.1 kmh SE 9.8 mph15.8 kmh 29.85 in1010.8 mb 0.00 in0.0 mm 0.00 in0.0 mm 0.09 in2.3 mm
08:16 PM 82.2°F27.9°C 66.9°F19.4°C 60% 3.8 mph SE6.1 kmh SE 9.2 mph14.8 kmh 29.85 in1010.8 mb 0.00 in0.0 mm 0.00 in0.0 mm 0.09 in2.3 mm
08:21 PM 81.9°F27.7°C 66.6°F19.2°C 60% 4.5 mph SW7.2 kmh SW 8.3 mph13.4 kmh 29.85 in1010.8 mb 0.00 in0.0 mm 0.00 in0.0 mm 0.09 in2.3 mm
08:26 PM 81.3°F27.4°C 66.6°F19.2°C 61% 3.1 mph NE5.0 kmh NE 9.2 mph14.8 kmh 29.85 in1010.8 mb 0.00 in0.0 mm 0.00 in0.0 mm 0.09 in2.3 mm
08:31 PM 81.0°F27.2°C 66.2°F19.0°C 61% 3.8 mph SE6.1 kmh SE 9.8 mph15.8 kmh 29.85 in1010.8 mb 0.00 in0.0 mm 0.00 in0.0 mm 0.09 in2.3 mm
08:36 PM 80.4°F26.9°C 66.2°F19.0°C 62% 4.5 mph S7.2 kmh S 9.8 mph15.8 kmh 29.85 in1010.8 mb 0.00 in0.0 mm 0.00 in0.0 mm 0.09 in2.3 mm
08:41 PM 79.9°F26.6°C 65.7°F18.7°C 62% 3.8 mph E6.1 kmh E 10.7 mph17.2 kmh 29.86 in1011.2 mb 0.00 in0.0 mm 0.00 in0.0 mm 0.09 in2.3 mm
08:47 PM 79.5°F26.4°C 65.3°F18.5°C 62% 3.8 mph NW6.1 kmh NW 10.7 mph17.2 kmh 29.86 in1011.2 mb 0.00 in0.0 mm 0.00 in0.0 mm 0.09 in2.3 mm
08:52 PM 79.0°F26.1°C 65.3°F18.5°C 63% 7.6 mph E12.2 kmh E 13.0 mph20.9 kmh 29.86 in1011.2 mb 0.00 in0.0 mm 0.00 in0.0 mm 0.09 in2.3 mm
08:57 PM 78.1°F25.6°C 65.3°F18.5°C 65% 6.9 mph ESE11.1 kmh ESE 12.1 mph19.5 kmh 29.86 in1011.2 mb 0.00 in0.0 mm 0.00 in0.0 mm 0.09 in2.3 mm
09:02 PM 77.4°F25.2°C 66.0°F18.9°C 68% 5.4 mph E8.7 kmh E 11.4 mph18.3 kmh 29.86 in1011.2 mb 0.00 in0.0 mm 0.00 in0.0 mm 0.09 in2.3 mm
09:07 PM 77.0°F25.0°C 66.0°F18.9°C 69% 6.9 mph E11.1 kmh E 9.8 mph15.8 kmh 29.86 in1011.2 mb 0.00 in0.0 mm 0.00 in0.0 mm 0.09 in2.3 mm
09:12 PM 76.3°F24.6°C 66.2°F19.0°C 71% 4.5 mph E7.2 kmh E 11.4 mph18.3 kmh 29.86 in1011.2 mb 0.00 in0.0 mm 0.00 in0.0 mm 0.09 in2.3 mm
09:18 PM 75.9°F24.4°C 66.6°F19.2°C 73% 6.9 mph E11.1 kmh E 10.7 mph17.2 kmh 29.86 in1011.2 mb 0.00 in0.0 mm 0.00 in0.0 mm 0.09 in2.3 mm
09:23 PM 75.7°F24.3°C 66.4°F19.1°C 73% 6.0 mph E9.7 kmh E 9.2 mph14.8 kmh 29.86 in1011.2 mb 0.00 in0.0 mm 0.00 in0.0 mm 0.09 in2.3 mm
09:28 PM 75.6°F24.2°C 66.7°F19.3°C 74% 5.4 mph E8.7 kmh E 10.7 mph17.2 kmh 29.87 in1011.5 mb 0.00 in0.0 mm 0.00 in0.0 mm 0.09 in2.3 mm
09:33 PM 75.4°F24.1°C 66.6°F19.2°C 74% 3.8 mph SE6.1 kmh SE 9.2 mph14.8 kmh 29.86 in1011.2 mb 0.00 in0.0 mm 0.00 in0.0 mm 0.09 in2.3 mm
09:38 PM 75.4°F24.1°C 66.6°F19.2°C 74% 3.8 mph NE6.1 kmh NE 9.2 mph14.8 kmh 29.86 in1011.2 mb 0.00 in0.0 mm 0.00 in0.0 mm 0.09 in2.3 mm
09:43 PM 75.4°F24.1°C 66.6°F19.2°C 74% 5.4 mph E8.7 kmh E 8.3 mph13.4 kmh 29.86 in1011.2 mb 0.00 in0.0 mm 0.00 in0.0 mm 0.09 in2.3 mm
09:49 PM 75.4°F24.1°C 66.2°F19.0°C 73% 5.4 mph SE8.7 kmh SE 8.3 mph13.4 kmh 29.87 in1011.5 mb 0.00 in0.0 mm 0.00 in0.0 mm 0.09 in2.3 mm
09:54 PM 75.6°F24.2°C 66.4°F19.1°C 73% 3.1 mph E5.0 kmh E 8.3 mph13.4 kmh 29.87 in1011.5 mb 0.00 in0.0 mm 0.00 in0.0 mm 0.09 in2.3 mm
09:59 PM 75.6°F24.2°C 66.4°F19.1°C 73% 4.5 mph E7.2 kmh E 9.2 mph14.8 kmh 29.87 in1011.5 mb 0.00 in0.0 mm 0.00 in0.0 mm 0.09 in2.3 mm
10:04 PM 75.7°F24.3°C 66.4°F19.1°C 73% 7.6 mph SE12.2 kmh SE 9.2 mph14.8 kmh 29.87 in1011.5 mb 0.00 in0.0 mm 0.00 in0.0 mm 0.09 in2.3 mm
10:09 PM 75.6°F24.2°C 66.4°F19.1°C 73% 3.8 mph SE6.1 kmh SE 9.2 mph14.8 kmh 29.87 in1011.5 mb 0.00 in0.0 mm 0.00 in0.0 mm 0.09 in2.3 mm
10:14 PM 75.7°F24.3°C 66.4°F19.1°C 73% 5.4 mph E8.7 kmh E 6.9 mph11.1 kmh 29.87 in1011.5 mb 0.00 in0.0 mm 0.00 in0.0 mm 0.09 in2.3 mm
10:20 PM 75.7°F24.3°C 66.0°F18.9°C 72% 4.5 mph E7.2 kmh E 8.3 mph13.4 kmh 29.87 in1011.5 mb 0.00 in0.0 mm 0.00 in0.0 mm 0.09 in2.3 mm
10:25 PM 75.6°F24.2°C 66.4°F19.1°C 73% 4.5 mph E7.2 kmh E 9.8 mph15.8 kmh 29.87 in1011.5 mb 0.00 in0.0 mm 0.00 in0.0 mm 0.09 in2.3 mm
10:30 PM 75.6°F24.2°C 66.4°F19.1°C 73% 5.4 mph E8.7 kmh E 9.8 mph15.8 kmh 29.87 in1011.5 mb 0.00 in0.0 mm 0.00 in0.0 mm 0.09 in2.3 mm
10:35 PM 75.6°F24.2°C 66.4°F19.1°C 73% 3.1 mph E5.0 kmh E 9.2 mph14.8 kmh 29.88 in1011.9 mb 0.00 in0.0 mm 0.00 in0.0 mm 0.09 in2.3 mm
10:40 PM 75.4°F24.1°C 66.2°F19.0°C 73% 3.8 mph E6.1 kmh E 6.9 mph11.1 kmh 29.88 in1011.9 mb 0.00 in0.0 mm 0.00 in0.0 mm 0.09 in2.3 mm
10:45 PM 75.4°F24.1°C 66.6°F19.2°C 74% 3.8 mph E6.1 kmh E 6.9 mph11.1 kmh 29.87 in1011.5 mb 0.00 in0.0 mm 0.00 in0.0 mm 0.09 in2.3 mm
10:51 PM 75.6°F24.2°C 66.7°F19.3°C 74% 5.4 mph ESE8.7 kmh ESE 8.3 mph13.4 kmh 29.87 in1011.5 mb 0.00 in0.0 mm 0.00 in0.0 mm 0.09 in2.3 mm
10:56 PM 75.6°F24.2°C 66.7°F19.3°C 74% 6.0 mph E9.7 kmh E 9.8 mph15.8 kmh 29.86 in1011.2 mb 0.00 in0.0 mm 0.00 in0.0 mm 0.09 in2.3 mm
11:01 PM 75.6°F24.2°C 66.7°F19.3°C 74% 6.0 mph ENE9.7 kmh ENE 8.3 mph13.4 kmh 29.86 in1011.2 mb 0.00 in0.0 mm 0.00 in0.0 mm 0.09 in2.3 mm
11:06 PM 75.4°F24.1°C 66.6°F19.2°C 74% 5.4 mph E8.7 kmh E 9.8 mph15.8 kmh 29.86 in1011.2 mb 0.00 in0.0 mm 0.00 in0.0 mm 0.09 in2.3 mm
11:11 PM 75.4°F24.1°C 66.6°F19.2°C 74% 6.9 mph NE11.1 kmh NE 9.2 mph14.8 kmh 29.86 in1011.2 mb 0.00 in0.0 mm 0.00 in0.0 mm 0.09 in2.3 mm
11:16 PM 75.2°F24.0°C 66.7°F19.3°C 75% 6.0 mph E9.7 kmh E 9.2 mph14.8 kmh 29.85 in1010.8 mb 0.00 in0.0 mm 0.00 in0.0 mm 0.09 in2.3 mm
11:22 PM 75.2°F24.0°C 66.7°F19.3°C 75% 4.5 mph E7.2 kmh E 8.3 mph13.4 kmh 29.85 in1010.8 mb 0.00 in0.0 mm 0.00 in0.0 mm 0.09 in2.3 mm
11:27 PM 75.2°F24.0°C 66.7°F19.3°C 75% 4.5 mph SE7.2 kmh SE 7.6 mph12.2 kmh 29.85 in1010.8 mb 0.00 in0.0 mm 0.00 in0.0 mm 0.09 in2.3 mm
11:32 PM 75.0°F23.9°C 66.6°F19.2°C 75% 6.9 mph E11.1 kmh E 9.2 mph14.8 kmh 29.85 in1010.8 mb 0.00 in0.0 mm 0.00 in0.0 mm 0.09 in2.3 mm
11:37 PM 75.2°F24.0°C 66.7°F19.3°C 75% 4.5 mph E7.2 kmh E 9.2 mph14.8 kmh 29.85 in1010.8 mb 0.00 in0.0 mm 0.00 in0.0 mm 0.09 in2.3 mm
11:42 PM 75.2°F24.0°C 66.7°F19.3°C 75% 3.8 mph E6.1 kmh E 8.3 mph13.4 kmh 29.85 in1010.8 mb 0.00 in0.0 mm 0.00 in0.0 mm 0.09 in2.3 mm
11:47 PM 75.2°F24.0°C 66.4°F19.1°C 74% 4.5 mph NE7.2 kmh NE 6.9 mph11.1 kmh 29.85 in1010.8 mb 0.00 in0.0 mm 0.00 in0.0 mm 0.09 in2.3 mm
11:53 PM 75.4°F24.1°C 66.6°F19.2°C 74% 3.8 mph E6.1 kmh E 6.0 mph9.7 kmh 29.85 in1010.8 mb 0.00 in0.0 mm 0.00 in0.0 mm 0.09 in2.3 mm
11:58 PM 75.6°F24.2°C 66.4°F19.1°C 73% 5.4 mph E8.7 kmh E 6.9 mph11.1 kmh 29.85 in1010.8 mb 0.00 in0.0 mm 0.00 in0.0 mm 0.09 in2.3 mm